Time;durP1;ratioP1;P1;durP2;ratioP2;P2;SDS_P1;SDS_P2;PMS_P1;PMS_P2;Temp;Humidity;BMP_temperature;BMP_pressure;BME280_temperature;BME280_humidity;BME280_pressure;Samples;Min_cycle;Max_cycle;Signal;HPM_P1;HPM_P2
2022/11/06 00:00:55;;;;;;;10.85;6.10;;;;;;;10.77;92.13;99918.34;4446769;32;33571;-76
2022/11/06 00:03:25;;;;;;;10.40;5.70;;;;;;;11.58;88.24;99923.63;4437330;32;33968;-78
2022/11/06 00:08:41;;;;;;;12.68;6.55;;;;;;;10.85;90.77;99915.22;4439078;32;33488;-78
2022/11/06 00:11:16;;;;;;;11.70;6.22;;;;;;;10.97;90.98;99926.13;4445023;32;34489;-78
2022/11/06 00:13:46;;;;;;;11.18;6.20;;;;;;;11.24;89.49;99930.78;4421526;32;33799;-78
2022/11/06 00:16:17;;;;;;;12.80;7.22;;;;;;;11.08;90.11;99932.69;4450947;32;34599;-77
2022/11/06 00:18:45;;;;;;;11.02;6.53;;;;;;;10.68;92.60;99933.50;4442707;32;34210;-77
2022/11/06 00:21:17;;;;;;;12.30;6.68;;;;;;;10.50;93.67;99937.81;4430961;32;32848;-77
2022/11/06 00:23:46;;;;;;;11.93;6.65;;;;;;;10.99;91.10;99935.78;4428120;32;34737;-78
2022/11/06 00:26:18;;;;;;;15.18;7.32;;;;;;;10.79;92.81;99931.38;4435746;32;34765;-78
2022/11/06 00:28:48;;;;;;;12.00;6.40;;;;;;;10.52;93.92;99931.00;4414204;32;34322;-76
2022/11/06 00:31:24;;;;;;;13.13;6.95;;;;;;;10.30;95.05;99931.66;4416279;32;33897;-78
2022/11/06 00:33:57;;;;;;;11.07;6.80;;;;;;;10.34;95.76;99926.72;4434526;32;34609;-76
2022/11/06 00:36:29;;;;;;;11.35;6.72;;;;;;;10.26;96.63;99933.19;4424564;32;34776;-78
2022/11/06 00:38:58;;;;;;;14.07;7.40;;;;;;;10.14;97.09;99925.75;4429703;32;32791;-77
2022/11/06 00:41:27;;;;;;;11.18;6.82;;;;;;;10.29;96.46;99928.16;4425726;32;34492;-76
2022/11/06 00:44:00;;;;;;;12.80;6.80;;;;;;;10.39;96.49;99935.59;4420571;32;34552;-76
2022/11/06 00:46:27;;;;;;;13.77;7.75;;;;;;;10.74;93.00;99926.00;4413365;32;33793;-78
2022/11/06 00:48:57;;;;;;;14.15;6.25;;;;;;;10.08;97.63;99927.13;4419201;32;33554;-78
2022/11/06 00:51:29;;;;;;;15.23;7.37;;;;;;;10.19;97.65;99933.72;4413259;32;34052;-76
2022/11/06 00:54:02;;;;;;;12.05;7.20;;;;;;;10.19;97.23;99928.53;4434175;32;34700;-78
2022/11/06 00:56:32;;;;;;;10.35;6.43;;;;;;;10.47;95.25;99927.28;4426141;32;34200;-78
2022/11/06 00:59:05;;;;;;;11.43;6.65;;;;;;;10.33;96.09;99930.09;4430674;32;32695;-77
2022/11/06 01:01:39;;;;;;;15.43;7.35;;;;;;;10.11;98.01;99927.28;4425127;32;34394;-76
2022/11/06 01:04:11;;;;;;;13.60;7.00;;;;;;;10.29;96.93;99933.34;4421518;32;33653;-77
2022/11/06 01:06:44;;;;;;;12.63;7.00;;;;;;;10.29;97.30;99930.75;4428017;32;34703;-78
2022/11/06 01:09:17;;;;;;;13.60;7.30;;;;;;;10.25;97.07;99941.78;4413939;32;33492;-78
2022/11/06 01:11:54;;;;;;;11.98;7.20;;;;;;;10.65;95.52;99924.69;4433938;32;32699;-76
2022/11/06 01:14:43;;;;;;;13.20;7.43;;;;;;;11.82;87.75;99930.72;4421783;32;34491;-78
2022/11/06 01:17:11;;;;;;;12.52;6.70;;;;;;;11.30;90.89;99931.03;4414529;32;33823;-78
2022/11/06 01:19:40;;;;;;;12.50;7.18;;;;;;;10.48;95.01;99939.44;4432377;32;33336;-78
2022/11/06 01:22:08;;;;;;;13.25;7.00;;;;;;;10.39;96.78;99940.78;4426378;32;33466;-78
2022/11/06 01:24:37;;;;;;;13.07;6.78;;;;;;;11.59;88.36;99935.81;4449263;32;33544;-78
2022/11/06 01:27:07;;;;;;;13.95;7.25;;;;;;;11.05;92.65;99940.34;4443869;32;34812;-78
2022/11/06 01:29:56;;;;;;;11.63;6.90;;;;;;;11.28;90.38;99933.59;4438841;32;33726;-78
2022/11/06 01:32:25;;;;;;;11.95;6.60;;;;;;;11.17;89.98;99945.19;4439216;32;34000;-78
2022/11/06 01:34:53;;;;;;;10.80;5.90;;;;;;;11.14;91.20;99943.34;4442629;32;34682;-77
2022/11/06 01:37:24;;;;;;;13.57;6.03;;;;;;;10.28;95.97;99934.16;4435636;32;34861;-78
2022/11/06 01:39:52;;;;;;;11.32;5.90;;;;;;;10.45;96.20;99934.09;4452771;32;35181;-77
2022/11/06 01:42:21;;;;;;;12.50;6.35;;;;;;;11.13;91.96;99928.62;4429941;32;33683;-77
2022/11/06 01:45:19;;;;;;;12.68;6.65;;;;;;;10.38;94.93;99941.59;4448614;32;34544;-78
2022/11/06 01:47:48;;;;;;;14.95;7.35;;;;;;;9.98;99.69;99937.03;4432295;32;33978;-78
2022/11/06 01:50:19;;;;;;;12.37;6.45;;;;;;;10.08;98.69;99932.31;4429218;32;31505;-76
2022/11/06 01:52:48;;;;;;;13.40;7.30;;;;;;;9.71;100.00;99930.50;4434226;32;33981;-76
2022/11/06 01:55:29;;;;;;;15.80;6.55;;;;;;;9.97;100.00;99934.38;4429335;32;34619;-78
2022/11/06 01:58:02;;;;;;;11.80;6.40;;;;;;;10.01;100.00;99942.34;4451086;32;34514;-76
2022/11/06 02:00:32;;;;;;;14.40;7.00;;;;;;;10.59;95.68;99940.84;4449427;32;34202;-78
2022/11/06 02:03:02;;;;;;;12.02;6.70;;;;;;;10.63;96.56;99941.03;4421188;32;33233;-79
2022/11/06 02:05:32;;;;;;;13.82;7.25;;;;;;;10.68;96.63;99949.03;4418792;32;32448;-78
2022/11/06 02:08:03;;;;;;;12.95;7.25;;;;;;;10.60;97.68;99946.09;4436024;32;34859;-78
2022/11/06 02:10:33;;;;;;;14.27;7.03;;;;;;;9.68;100.00;99948.44;4425933;32;34300;-77
2022/11/06 02:13:32;;;;;;;13.05;6.78;;;;;;;10.31;99.07;99952.44;4434818;32;34036;-78
2022/11/06 02:16:22;;;;;;;13.52;7.32;;;;;;;9.95;100.00;99947.25;4445849;32;34667;-78
2022/11/06 02:19:18;;;;;;;13.73;7.12;;;;;;;9.75;100.00;99948.81;4439733;32;34126;-79
2022/11/06 02:22:15;;;;;;;14.00;7.28;;;;;;;9.65;100.00;99955.22;4430025;32;33371;-77
2022/11/06 02:25:11;;;;;;;14.40;7.82;;;;;;;9.69;100.00;99952.81;4437575;32;32311;-76
2022/11/06 02:27:45;;;;;;;22.48;7.72;;;;;;;9.59;100.00;99957.50;4441752;32;34067;-78
2022/11/06 02:30:15;;;;;;;16.12;7.90;;;;;;;9.93;100.00;99954.03;4449041;32;34542;-77
2022/11/06 02:32:50;;;;;;;16.27;7.47;;;;;;;9.70;100.00;99959.78;4448128;32;34264;-77
2022/11/06 02:35:22;;;;;;;16.25;7.75;;;;;;;9.36;100.00;99955.44;4448160;32;34744;-76
2022/11/06 02:38:00;;;;;;;16.42;8.30;;;;;;;9.92;100.00;99962.59;4431964;32;34726;-76
2022/11/06 02:40:33;;;;;;;15.13;8.13;;;;;;;9.56;100.00;99961.63;4430938;32;34689;-76
2022/11/06 02:43:06;;;;;;;14.35;7.65;;;;;;;9.60;100.00;99968.72;4430652;32;33595;-78
2022/11/06 02:45:47;;;;;;;13.30;7.65;;;;;;;9.76;100.00;99975.59;4446221;32;33618;-77
2022/11/06 02:48:21;;;;;;;13.90;7.75;;;;;;;9.54;100.00;99973.59;4436434;32;33797;-77
2022/11/06 02:50:51;;;;;;;14.50;7.50;;;;;;;9.69;100.00;99978.66;4447651;32;34588;-79
2022/11/06 02:53:22;;;;;;;12.60;7.12;;;;;;;10.22;100.00;99985.66;4445138;32;33697;-77
2022/11/06 02:56:00;;;;;;;14.13;8.10;;;;;;;9.68;100.00;99982.06;4436771;32;34399;-77
2022/11/06 02:58:40;;;;;;;15.48;8.07;;;;;;;9.63;100.00;99985.28;4430702;32;33880;-78
2022/11/06 03:01:34;;;;;;;14.00;7.62;;;;;;;10.04;100.00;99989.09;4444073;32;34625;-77
2022/11/06 03:04:15;;;;;;;16.15;8.18;;;;;;;9.95;100.00;99991.22;4450292;32;33737;-77
2022/11/06 03:06:51;;;;;;;14.23;7.80;;;;;;;9.88;100.00;99991.72;4436216;32;34047;-76
2022/11/06 03:09:28;;;;;;;16.45;7.70;;;;;;;9.59;100.00;99988.53;4441677;32;32550;-77
2022/11/06 03:12:24;;;;;;;16.33;7.47;;;;;;;10.64;98.86;99993.72;4440598;32;34199;-77
2022/11/06 03:14:59;;;;;;;14.52;8.02;;;;;;;10.23;100.00;100001.22;4425742;32;34283;-78
2022/11/06 03:17:38;;;;;;;12.13;7.07;;;;;;;9.79;100.00;99996.41;4426892;32;32286;-79
2022/11/06 03:20:15;;;;;;;15.10;7.35;;;;;;;9.63;100.00;99994.75;4451278;32;33944;-77
2022/11/06 03:22:54;;;;;;;15.50;8.05;;;;;;;9.72;100.00;100000.41;4438510;32;34051;-79
2022/11/06 03:25:53;;;;;;;13.95;7.10;;;;;;;9.76;100.00;100004.94;4441594;32;34423;-79
2022/11/06 03:28:40;;;;;;;14.02;7.18;;;;;;;9.44;100.00;100011.00;4427632;32;33548;-76
2022/11/06 03:31:14;;;;;;;12.43;7.15;;;;;;;9.38;100.00;100008.09;4425836;32;32340;-76
2022/11/06 03:33:54;;;;;;;15.57;8.07;;;;;;;9.30;100.00;100019.75;4411880;32;33902;-78
2022/11/06 03:36:47;;;;;;;15.63;7.85;;;;;;;9.27;100.00;100015.28;4429325;32;33448;-77
2022/11/06 03:39:23;;;;;;;14.65;7.35;;;;;;;9.48;100.00;100012.94;4441034;32;34543;-78
2022/11/06 03:42:10;;;;;;;15.55;8.00;;;;;;;10.04;100.00;100012.41;4439259;32;33817;-78
2022/11/06 03:44:43;;;;;;;15.43;7.60;;;;;;;10.02;100.00;100016.63;4434930;32;33704;-78
2022/11/06 03:47:24;;;;;;;17.35;8.07;;;;;;;10.03;100.00;100022.66;4422448;32;34291;-77
2022/11/06 03:50:04;;;;;;;14.13;6.97;;;;;;;10.17;100.00;100023.34;4434645;32;34481;-78
2022/11/06 03:53:03;;;;;;;14.55;7.37;;;;;;;10.12;100.00;100023.13;4430412;32;34516;-77
2022/11/06 03:55:36;;;;;;;15.88;7.68;;;;;;;10.34;98.71;100025.12;4442533;32;33941;-79
2022/11/06 03:58:09;;;;;;;14.85;8.95;;;;;;;9.77;100.00;100024.81;4444402;32;33463;-76
2022/11/06 04:00:41;;;;;;;13.98;7.45;;;;;;;9.74;100.00;100018.59;4411846;32;33968;-77
2022/11/06 04:03:38;;;;;;;15.32;7.07;;;;;;;9.99;100.00;100031.97;4417698;32;33569;-77
2022/11/06 04:06:23;;;;;;;15.10;7.50;;;;;;;10.13;100.00;100034.38;4426833;32;34667;-78
2022/11/06 04:14:37;;;;;;;14.40;7.37;;;;;;;10.02;100.00;100029.56;4435038;32;33843;-76
2022/11/06 04:17:12;;;;;;;14.43;7.65;;;;;;;9.66;100.00;100031.13;4428915;32;33953;-76
2022/11/06 04:19:46;;;;;;;12.88;7.95;;;;;;;9.91;100.00;100033.28;4421489;32;33776;-77
2022/11/06 04:22:27;;;;;;;13.02;6.97;;;;;;;9.77;100.00;100036.84;4433915;32;34068;-76
2022/11/06 04:28:30;;;;;;;15.93;7.93;;;;;;;9.96;100.00;100030.94;4424218;32;34186;-78
2022/11/06 04:31:12;;;;;;;15.15;8.50;;;;;;;9.55;100.00;100037.44;4432828;32;33713;-76
2022/11/06 04:34:05;;;;;;;13.57;7.82;;;;;;;9.76;100.00;100037.69;4443516;32;34551;-76
2022/11/06 04:37:11;;;;;;;14.75;7.68;;;;;;;9.81;100.00;100031.03;4430162;32;33970;-76
2022/11/06 04:39:49;;;;;;;13.40;6.82;;;;;;;9.91;100.00;100032.38;4412198;32;33909;-78
2022/11/06 04:42:25;;;;;;;12.82;6.85;;;;;;;10.69;98.09;100032.81;4424414;32;33504;-78
2022/11/06 04:44:57;;;;;;;11.30;6.75;;;;;;;10.47;98.19;100029.19;4449528;32;34094;-76
2022/11/06 04:47:28;;;;;;;13.13;6.60;;;;;;;9.90;100.00;100028.91;4446345;32;33911;-76
2022/11/06 04:49:58;;;;;;;11.65;6.45;;;;;;;10.39;99.09;100026.25;4438193;32;33996;-77
2022/11/06 04:52:28;;;;;;;13.70;6.47;;;;;;;10.13;99.49;100032.66;4430600;32;33610;-78
2022/11/06 04:54:57;;;;;;;14.55;7.35;;;;;;;9.99;100.00;100031.09;4446740;32;34638;-76
2022/11/06 04:57:26;;;;;;;12.65;6.30;;;;;;;10.18;100.00;100038.09;4431946;32;33233;-79
2022/11/06 04:59:55;;;;;;;13.05;7.07;;;;;;;9.67;100.00;100043.25;4441033;32;33522;-79
2022/11/06 05:02:25;;;;;;;14.60;6.55;;;;;;;10.36;99.79;100038.13;4435000;32;33829;-77
2022/11/06 05:04:54;;;;;;;12.43;7.40;;;;;;;10.29;97.96;100036.91;4445779;32;33769;-76
2022/11/06 05:07:22;;;;;;;14.05;7.10;;;;;;;9.81;100.00;100031.03;4445660;32;34000;-76
2022/11/06 05:09:51;;;;;;;14.18;7.32;;;;;;;9.43;100.00;100035.09;4450989;32;33854;-77
2022/11/06 05:12:20;;;;;;;14.52;7.35;;;;;;;9.26;100.00;100036.78;4435566;32;34156;-76
2022/11/06 05:14:48;;;;;;;13.38;6.78;;;;;;;10.21;100.00;100027.88;4438159;32;33922;-79
2022/11/06 05:17:17;;;;;;;12.77;7.22;;;;;;;9.84;100.00;100038.94;4438115;32;33763;-76
2022/11/06 05:19:46;;;;;;;14.07;7.47;;;;;;;10.24;100.00;100033.22;4429389;32;33924;-78
2022/11/06 05:25:02;;;;;;;13.68;7.18;;;;;;;9.90;100.00;100040.97;4439425;32;34763;-78
2022/11/06 05:27:31;;;;;;;13.35;6.68;;;;;;;10.19;98.32;100045.03;4433151;32;33936;-79
2022/11/06 05:29:59;;;;;;;11.75;6.70;;;;;;;9.80;100.00;100052.53;4442070;32;34561;-79
2022/11/06 05:32:27;;;;;;;13.85;7.07;;;;;;;9.79;100.00;100049.06;4440846;32;33191;-78
2022/11/06 05:34:57;;;;;;;11.93;6.55;;;;;;;10.14;98.99;100057.75;4451894;32;33804;-78
2022/11/06 05:37:26;;;;;;;12.82;6.78;;;;;;;9.92;99.75;100053.16;4443595;32;34860;-77
2022/11/06 05:39:57;;;;;;;14.38;7.05;;;;;;;9.74;100.00;100060.87;4412038;32;32501;-79
2022/11/06 05:42:26;;;;;;;11.82;6.45;;;;;;;10.26;97.58;100062.66;4448896;32;33381;-78
2022/11/06 05:44:55;;;;;;;14.70;7.47;;;;;;;10.18;97.01;100063.97;4443230;32;33536;-77
2022/11/06 05:47:24;;;;;;;14.65;7.57;;;;;;;10.25;96.75;100071.22;4438708;32;33009;-79
2022/11/06 05:49:52;;;;;;;13.70;7.40;;;;;;;10.65;96.89;100078.41;4443306;32;34680;-77
2022/11/06 05:52:21;;;;;;;15.77;7.20;;;;;;;10.59;93.40;100072.94;4429427;32;33350;-76
2022/11/06 05:54:50;;;;;;;14.43;7.53;;;;;;;9.54;100.00;100088.28;4432136;32;34615;-76
2022/11/06 05:57:19;;;;;;;14.80;7.10;;;;;;;10.68;94.08;100081.16;4442276;32;34635;-76
2022/11/06 05:59:46;;;;;;;12.80;6.85;;;;;;;11.57;88.64;100082.75;4441654;32;33789;-76
2022/11/06 06:02:16;;;;;;;11.68;7.15;;;;;;;11.58;88.25;100092.28;4443834;32;33470;-76
2022/11/06 06:04:46;;;;;;;12.00;7.20;;;;;;;11.59;87.87;100088.88;4443647;32;33583;-79
2022/11/06 06:07:16;;;;;;;13.88;7.00;;;;;;;11.18;89.39;100107.72;4441030;32;33284;-78
2022/11/06 06:09:46;;;;;;;14.60;6.78;;;;;;;11.22;88.63;100101.84;4442727;32;34215;-78
2022/11/06 06:12:15;;;;;;;12.75;7.65;;;;;;;10.22;96.91;100103.03;4440386;32;34075;-77
2022/11/06 06:14:44;;;;;;;15.40;7.53;;;;;;;10.60;96.23;100110.97;4433358;32;33819;-78
2022/11/06 06:17:19;;;;;;;13.18;7.55;;;;;;;10.29;96.74;100109.38;4438718;32;34483;-76
2022/11/06 06:19:49;;;;;;;14.93;8.93;;;;;;;10.16;97.62;100117.34;4449830;32;35034;-77
2022/11/06 06:22:20;;;;;;;15.30;8.48;;;;;;;10.33;95.50;100116.53;4425141;32;34469;-77
2022/11/06 06:24:48;;;;;;;16.58;8.35;;;;;;;9.99;100.00;100114.78;4438595;32;34550;-78
2022/11/06 06:27:16;;;;;;;15.23;8.40;;;;;;;9.43;100.00;100117.84;4437397;32;32312;-76
2022/11/06 06:29:46;;;;;;;15.63;7.93;;;;;;;9.77;100.00;100114.47;4444066;32;33677;-75
2022/11/06 06:32:17;;;;;;;14.93;7.35;;;;;;;9.89;99.81;100116.81;4453873;32;33219;-77
2022/11/06 06:34:46;;;;;;;14.82;7.45;;;;;;;9.81;100.00;100118.97;4447402;32;33781;-76
2022/11/06 06:37:15;;;;;;;14.55;7.97;;;;;;;10.81;93.78;100119.78;4447939;32;33471;-78
2022/11/06 06:39:47;;;;;;;14.25;7.90;;;;;;;10.41;97.15;100124.69;4435720;32;34124;-76
2022/11/06 06:42:17;;;;;;;15.02;7.45;;;;;;;10.06;99.39;100126.34;4450504;32;34292;-76
2022/11/06 06:44:47;;;;;;;16.40;8.30;;;;;;;9.64;100.00;100141.41;4444468;32;33653;-76
2022/11/06 06:47:17;;;;;;;16.87;8.85;;;;;;;10.77;96.00;100138.59;4445582;32;33692;-76
2022/11/06 06:49:46;;;;;;;14.87;8.35;;;;;;;10.60;94.01;100142.97;4430480;32;34035;-79
2022/11/06 06:52:16;;;;;;;14.02;7.75;;;;;;;10.84;93.09;100144.97;4451685;32;33839;-78
2022/11/06 06:54:45;;;;;;;15.25;7.82;;;;;;;10.59;95.54;100150.66;4443804;32;33767;-78
2022/11/06 06:57:14;;;;;;;14.73;7.68;;;;;;;11.12;91.67;100149.78;4444583;32;33111;-78
2022/11/06 06:59:43;;;;;;;13.43;7.20;;;;;;;11.57;88.31;100150.19;4441043;32;34183;-77
2022/11/06 07:02:13;;;;;;;15.23;8.40;;;;;;;11.39;89.47;100155.37;4448824;32;33346;-77
2022/11/06 07:04:42;;;;;;;14.77;8.07;;;;;;;11.50;89.19;100158.50;4422394;32;34399;-76
2022/11/06 07:07:12;;;;;;;14.65;7.82;;;;;;;11.11;90.31;100152.34;4439657;32;33480;-75
2022/11/06 07:09:41;;;;;;;15.55;8.45;;;;;;;10.90;90.76;100157.34;4435788;32;34105;-76
2022/11/06 07:12:08;;;;;;;17.30;8.20;;;;;;;10.91;93.23;100164.31;4441625;32;33826;-77
2022/11/06 07:14:38;;;;;;;15.55;8.80;;;;;;;11.25;90.35;100160.75;4436918;32;34695;-77
2022/11/06 07:17:07;;;;;;;17.67;9.13;;;;;;;11.25;89.32;100160.75;4444691;32;33958;-77
2022/11/06 07:19:37;;;;;;;19.70;11.07;;;;;;;10.08;96.60;100176.47;4440239;32;32864;-77
2022/11/06 07:22:08;;;;;;;14.48;9.05;;;;;;;10.47;97.44;100173.31;4442920;32;34136;-77
2022/11/06 07:24:38;;;;;;;18.20;9.38;;;;;;;11.04;92.89;100169.28;4443763;32;33692;-76
2022/11/06 07:27:08;;;;;;;15.60;9.10;;;;;;;11.16;91.50;100174.16;4431795;32;33768;-77
2022/11/06 07:29:37;;;;;;;15.82;9.73;;;;;;;11.38;89.37;100165.72;4444399;32;33517;-77
2022/11/06 07:32:08;;;;;;;17.83;10.18;;;;;;;11.14;89.89;100176.69;4452024;32;33614;-79
2022/11/06 07:34:38;;;;;;;22.50;11.52;;;;;;;10.95;92.08;100172.31;4425271;32;34649;-76
2022/11/06 07:37:08;;;;;;;18.27;10.20;;;;;;;10.93;91.78;100178.22;4434369;32;33902;-78
2022/11/06 07:39:37;;;;;;;17.02;9.80;;;;;;;11.35;90.02;100168.16;4441607;32;34990;-79
2022/11/06 07:42:06;;;;;;;18.62;9.90;;;;;;;10.04;96.86;100182.31;4446731;32;32342;-75
2022/11/06 07:44:35;;;;;;;16.95;9.45;;;;;;;10.90;92.49;100183.28;4448730;32;33670;-77
2022/11/06 07:47:06;;;;;;;16.80;8.32;;;;;;;10.37;94.50;100180.66;4447798;32;35716;-79
2022/11/06 07:49:35;;;;;;;18.85;9.10;;;;;;;10.43;98.12;100186.13;4440912;32;34155;-76
2022/11/06 07:52:06;;;;;;;13.80;7.10;;;;;;;10.41;94.04;100184.25;4436487;32;34200;-78
2022/11/06 07:54:36;;;;;;;17.40;8.35;;;;;;;10.85;93.59;100182.16;4440784;32;33635;-76
2022/11/06 07:57:05;;;;;;;14.87;8.15;;;;;;;11.24;90.39;100190.09;4446537;32;33792;-78
2022/11/06 07:59:33;;;;;;;16.25;8.75;;;;;;;10.73;91.13;100185.91;4442921;32;34778;-76
2022/11/06 08:02:02;;;;;;;15.63;8.75;;;;;;;11.21;90.77;100186.53;4427893;32;34266;-77
2022/11/06 08:04:34;;;;;;;16.05;8.32;;;;;;;10.95;92.80;100179.19;4433655;32;33870;-76
2022/11/06 08:07:02;;;;;;;15.90;8.68;;;;;;;10.90;92.00;100183.28;4442711;32;33634;-77
2022/11/06 08:09:31;;;;;;;19.73;8.75;;;;;;;10.00;96.93;100193.31;4436346;32;34168;-76
2022/11/06 08:12:01;;;;;;;17.85;9.18;;;;;;;10.62;94.17;100187.06;4427425;32;31898;-76
2022/11/06 08:14:30;;;;;;;14.87;8.27;;;;;;;10.95;93.10;100189.56;4431798;32;32826;-79
2022/11/06 08:16:58;;;;;;;16.77;8.07;;;;;;;11.30;89.85;100186.09;4447881;32;33944;-78
2022/11/06 08:19:27;;;;;;;19.83;9.48;;;;;;;11.03;91.47;100183.06;4428695;32;34250;-76
2022/11/06 08:21:57;;;;;;;18.02;9.82;;;;;;;10.66;95.00;100186.41;4436262;32;34439;-78
2022/11/06 08:24:27;;;;;;;16.30;8.65;;;;;;;11.08;91.46;100184.16;4432435;32;34523;-79
2022/11/06 08:26:58;;;;;;;17.90;9.82;;;;;;;11.07;91.50;100192.78;4408144;32;34594;-76
2022/11/06 08:29:28;;;;;;;15.15;9.15;;;;;;;11.16;91.05;100194.91;4428722;32;34038;-77
2022/11/06 08:31:59;;;;;;;18.45;9.93;;;;;;;10.47;93.69;100194.03;4435032;32;34318;-76
2022/11/06 08:34:27;;;;;;;20.48;9.05;;;;;;;10.65;93.64;100195.00;4443400;32;33849;-76
2022/11/06 08:36:57;;;;;;;17.55;9.20;;;;;;;10.78;95.23;100192.22;4441818;32;33697;-78
2022/11/06 08:39:26;;;;;;;16.75;8.93;;;;;;;11.06;92.57;100190.97;4441215;32;34340;-77
2022/11/06 08:41:56;;;;;;;22.67;10.98;;;;;;;11.53;89.32;100194.97;4443107;32;32490;-79
2022/11/06 08:44:27;;;;;;;22.00;10.43;;;;;;;10.27;95.70;100193.88;4446493;32;33911;-77
2022/11/06 08:46:58;;;;;;;23.05;10.45;;;;;;;10.52;97.21;100195.19;4436453;32;33845;-78
2022/11/06 08:49:29;;;;;;;19.90;9.80;;;;;;;11.57;90.12;100191.72;4433558;32;34519;-75
2022/11/06 08:51:59;;;;;;;18.95;9.32;;;;;;;11.72;88.06;100185.44;4429110;32;32852;-76
2022/11/06 08:54:28;;;;;;;17.35;9.60;;;;;;;11.69;87.66;100188.78;4434085;32;33700;-76
2022/11/06 08:56:59;;;;;;;18.58;9.60;;;;;;;11.39;90.23;100193.41;4434272;32;33932;-78
2022/11/06 08:59:27;;;;;;;16.45;9.00;;;;;;;11.38;90.17;100182.16;4451259;32;34155;-76
2022/11/06 09:01:57;;;;;;;18.30;9.15;;;;;;;11.73;88.32;100193.31;4438932;32;34536;-76
2022/11/06 09:04:27;;;;;;;15.40;8.38;;;;;;;11.60;88.73;100191.84;4425956;32;34016;-75
2022/11/06 09:06:58;;;;;;;19.40;9.95;;;;;;;11.62;88.71;100199.69;4435259;32;33745;-76
2022/11/06 09:09:30;;;;;;;21.25;10.27;;;;;;;10.79;94.29;100193.97;4431654;32;32838;-75
2022/11/06 09:12:02;;;;;;;19.70;10.63;;;;;;;10.33;97.80;100194.22;4448099;32;33620;-77
2022/11/06 09:14:35;;;;;;;18.95;10.85;;;;;;;10.42;98.00;100189.53;4439963;32;33876;-77
2022/11/06 09:17:04;;;;;;;20.02;11.15;;;;;;;11.11;93.69;100180.84;4427717;32;33723;-75
2022/11/06 09:19:32;;;;;;;24.80;12.55;;;;;;;11.13;95.38;100182.69;4431665;32;34822;-75
2022/11/06 09:22:02;;;;;;;21.25;11.50;;;;;;;10.49;98.38;100175.19;4435598;32;32532;-75
2022/11/06 09:24:32;;;;;;;22.23;11.90;;;;;;;10.70;98.17;100178.00;4425132;32;34114;-75
2022/11/06 09:27:20;;;;;;;18.83;10.80;;;;;;;10.53;98.77;100186.63;4431633;32;34781;-77
2022/11/06 09:29:52;;;;;;;19.90;11.25;;;;;;;10.37;99.10;100180.66;4440849;32;33997;-78
2022/11/06 09:32:23;;;;;;;20.52;10.63;;;;;;;10.36;100.00;100184.03;4433622;32;33844;-76
2022/11/06 09:34:52;;;;;;;19.77;11.27;;;;;;;10.94;97.54;100185.19;4422104;32;33977;-77
2022/11/06 09:37:22;;;;;;;17.37;10.70;;;;;;;10.88;96.26;100180.59;4425221;32;33872;-77
2022/11/06 09:39:51;;;;;;;20.55;9.98;;;;;;;10.42;99.97;100179.16;4431249;32;34174;-77
2022/11/06 09:43:02;;;;;;;17.27;9.05;;;;;;;11.25;95.29;100181.50;4426267;32;33847;-76
2022/11/06 09:45:42;;;;;;;17.95;10.73;;;;;;;12.02;91.29;100180.81;4408398;32;34286;-75
2022/11/06 09:48:30;;;;;;;18.75;10.68;;;;;;;11.00;96.65;100180.31;4424398;32;34706;-77
2022/11/06 09:51:04;;;;;;;15.20;8.95;;;;;;;12.16;90.12;100168.44;4421951;32;33183;-77
2022/11/06 09:53:41;;;;;;;19.60;9.68;;;;;;;12.62;88.07;100178.22;4425550;32;33597;-79
2022/11/06 09:56:12;;;;;;;16.98;9.55;;;;;;;12.42;87.66;100177.38;4431458;32;34640;-78
2022/11/06 09:58:47;;;;;;;17.62;9.52;;;;;;;11.57;91.93;100170.94;4417681;32;33492;-80
2022/11/06 10:01:21;;;;;;;17.08;9.38;;;;;;;11.13;95.15;100177.50;4432817;32;33203;-77
2022/11/06 10:04:00;;;;;;;16.80;9.70;;;;;;;11.40;94.24;100175.34;4425330;32;33851;-78
2022/11/06 10:06:29;;;;;;;18.60;10.35;;;;;;;11.30;95.59;100164.44;4436140;32;34142;-78
2022/11/06 10:09:03;;;;;;;16.73;8.57;;;;;;;11.19;96.72;100167.41;4429476;32;33502;-77
2022/11/06 10:12:05;;;;;;;17.67;9.10;;;;;;;11.32;96.31;100168.91;4423137;32;33585;-77
2022/11/06 10:15:08;;;;;;;14.50;8.38;;;;;;;12.42;90.56;100163.47;4433685;32;33623;-77
2022/11/06 10:17:50;;;;;;;15.25;8.00;;;;;;;12.61;87.91;100166.03;4423750;32;33677;-77
2022/11/06 10:20:24;;;;;;;14.95;8.18;;;;;;;12.46;89.26;100157.59;4436690;32;35708;-77
2022/11/06 10:22:57;;;;;;;16.60;9.05;;;;;;;13.11;84.70;100156.84;4441191;32;33785;-77
2022/11/06 10:25:50;;;;;;;16.30;8.35;;;;;;;13.46;83.09;100159.09;4438721;32;33754;-78
2022/11/06 10:28:31;;;;;;;19.08;9.57;;;;;;;12.16;90.35;100163.22;4418230;32;32941;-79
2022/11/06 10:31:11;;;;;;;17.00;8.88;;;;;;;12.37;91.00;100158.97;4433247;32;34521;-79
2022/11/06 10:34:04;;;;;;;14.15;8.35;;;;;;;12.85;88.49;100157.50;4432348;32;34624;-78
2022/11/06 10:36:39;;;;;;;16.45;9.45;;;;;;;13.17;85.58;100157.09;4420208;32;33925;-78
2022/11/06 10:39:15;;;;;;;17.80;8.85;;;;;;;12.56;88.17;100149.37;4425976;32;34061;-78
2022/11/06 10:41:50;;;;;;;15.63;8.80;;;;;;;13.30;85.23;100153.28;4421479;32;34039;-76
2022/11/06 10:44:35;;;;;;;13.37;7.60;;;;;;;13.05;85.76;100150.50;4437439;32;33846;-77
2022/11/06 10:47:27;;;;;;;16.42;8.43;;;;;;;12.94;86.88;100152.66;4436470;32;34291;-78
2022/11/06 10:50:01;;;;;;;14.30;8.23;;;;;;;12.26;90.83;100147.22;4439273;32;34369;-78
2022/11/06 10:52:58;;;;;;;15.63;9.02;;;;;;;12.23;91.62;100143.59;4424534;32;34374;-77
2022/11/06 10:55:52;;;;;;;13.93;7.90;;;;;;;12.26;92.38;100142.03;4424978;32;33697;-78
2022/11/06 10:58:30;;;;;;;17.80;9.93;;;;;;;12.25;92.40;100142.88;4430827;32;33438;-78
2022/11/06 11:01:03;;;;;;;16.90;9.52;;;;;;;12.57;90.97;100136.47;4433956;32;33980;-79
2022/11/06 11:03:42;;;;;;;16.15;8.75;;;;;;;12.47;91.09;100128.19;4427396;32;33724;-78
2022/11/06 11:06:10;;;;;;;14.20;8.02;;;;;;;12.25;92.78;100132.47;4410454;32;34261;-78
2022/11/06 11:08:43;;;;;;;15.18;8.93;;;;;;;11.87;94.54;100129.03;4425615;32;32750;-79
2022/11/06 11:11:14;;;;;;;17.73;8.45;;;;;;;12.05;94.52;100122.91;4430059;32;33033;-78
2022/11/06 11:13:48;;;;;;;13.73;8.25;;;;;;;12.46;92.46;100127.31;4425150;32;33668;-78
2022/11/06 11:16:24;;;;;;;15.70;8.80;;;;;;;12.26;93.90;100118.66;4436654;32;33998;-78
2022/11/06 11:18:53;;;;;;;12.68;6.72;;;;;;;13.29;88.04;100125.47;4435157;32;34219;-79
2022/11/06 11:21:26;;;;;;;11.63;6.25;;;;;;;14.13;82.68;100114.72;4442074;32;33676;-78
2022/11/06 11:24:08;;;;;;;9.90;4.95;;;;;;;14.04;81.85;100116.13;4442860;32;33955;-79
2022/11/06 11:26:49;;;;;;;7.85;3.90;;;;;;;14.26;80.96;100116.06;4432027;32;34678;-76
2022/11/06 11:29:26;;;;;;;8.32;4.40;;;;;;;14.44;77.40;100115.78;4432221;32;34315;-76
2022/11/06 11:32:02;;;;;;;8.23;3.85;;;;;;;14.42;77.89;100114.84;4419508;32;33900;-77
2022/11/06 11:34:44;;;;;;;12.32;6.05;;;;;;;14.12;78.46;100112.09;4419804;32;33454;-77
2022/11/06 11:37:30;;;;;;;13.07;6.93;;;;;;;13.05;85.82;100130.59;4432643;32;33922;-77
2022/11/06 11:40:28;;;;;;;14.05;7.55;;;;;;;13.64;85.19;100138.09;4419687;32;32833;-76
2022/11/06 11:43:25;;;;;;;12.32;7.50;;;;;;;12.84;87.62;100134.91;4429797;32;34027;-76
2022/11/06 11:46:05;;;;;;;13.13;7.60;;;;;;;12.87;87.60;100124.66;4421048;32;33753;-77
2022/11/06 11:48:44;;;;;;;13.88;7.55;;;;;;;12.80;89.48;100123.50;4440818;32;33391;-76
2022/11/06 11:51:25;;;;;;;15.70;8.30;;;;;;;12.23;92.02;100115.03;4434740;32;33483;-76
2022/11/06 11:53:57;;;;;;;14.15;8.45;;;;;;;12.31;93.72;100114.56;4436026;32;33830;-77
2022/11/06 11:56:30;;;;;;;13.25;7.93;;;;;;;12.31;92.62;100111.97;4456848;32;33996;-76
2022/11/06 11:59:44;;;;;;;13.75;8.05;;;;;;;13.59;86.31;100116.22;4443921;32;33899;-77
2022/11/06 12:02:35;;;;;;;14.52;8.20;;;;;;;12.75;87.86;100115.53;4433524;32;32574;-76
2022/11/06 12:05:12;;;;;;;14.55;8.25;;;;;;;12.34;90.52;100119.91;4433890;32;33926;-77
2022/11/06 12:07:44;;;;;;;17.62;9.52;;;;;;;13.26;86.50;100114.06;4430946;32;35272;-77